EZY78ME EGPH-EGGD
Flight info
| Callsign | EZY78ME |
|---|---|
| Flight time | 0h 56m |
| Altitude | 33000 |
| Route | GOSAM P600 FENIK L612 NAVSO DCT ADZOP DCT EGTOC DCT NOKIN N862 KARNO DCT ALHUP DCT LUCSA N862 WEVBE |
| Aircraft | A20N/M-SDE2E3FGHIJ1RWXYZ/LB1G1 |
Departure
| Time | 2026-05-05 17:17 |
|---|---|
| Airport | Edinburgh Airport (EGPH) |
Arrival
| Time | 2026-05-05 18:13 |
|---|---|
| Airport | Bristol Airport (EGGD) |
| Time | Latitude | Longitude | Altitude | Speed | Heading |
|---|---|---|---|---|---|
| 2026-05-05 16:29 | 55.94905 | -3.36495 | 102 ft | 0 kts | 148° |
| 2026-05-05 16:59 | 55.94915 | -3.36506 | 102 ft | 2 kts | 150° |
| 2026-05-05 17:00 | 55.94928 | -3.36520 | 102 ft | 2 kts | 149° |
| 2026-05-05 17:00 | 55.94941 | -3.36533 | 102 ft | 2 kts | 149° |
| 2026-05-05 17:00 | 55.94953 | -3.36547 | 102 ft | 2 kts | 149° |
| 2026-05-05 17:00 | 55.94962 | -3.36557 | 102 ft | 0 kts | 149° |
| 2026-05-05 17:01 | 55.94964 | -3.36559 | 102 ft | 0 kts | 149° |
| 2026-05-05 17:08 | 55.94955 | -3.36557 | 102 ft | 2 kts | 192° |
| 2026-05-05 17:08 | 55.94935 | -3.36621 | 102 ft | 9 kts | 248° |
| 2026-05-05 17:08 | 55.94900 | -3.36749 | 101 ft | 12 kts | 256° |
| 2026-05-05 17:09 | 55.94926 | -3.36879 | 100 ft | 11 kts | 267° |
| 2026-05-05 17:09 | 55.94884 | -3.37019 | 100 ft | 13 kts | 239° |
| 2026-05-05 17:09 | 55.94833 | -3.37173 | 102 ft | 15 kts | 239° |
| 2026-05-05 17:09 | 55.94776 | -3.37339 | 101 ft | 16 kts | 239° |
| 2026-05-05 17:10 | 55.94716 | -3.37517 | 101 ft | 17 kts | 239° |
| 2026-05-05 17:10 | 55.94671 | -3.37647 | 102 ft | 8 kts | 239° |
| 2026-05-05 17:10 | 55.94647 | -3.37718 | 103 ft | 0 kts | 239° |
| 2026-05-05 17:11 | 55.94647 | -3.37719 | 103 ft | 0 kts | 239° |
| 2026-05-05 17:12 | 55.94640 | -3.37739 | 103 ft | 2 kts | 240° |
| 2026-05-05 17:12 | 55.94631 | -3.37767 | 103 ft | 2 kts | 240° |
| 2026-05-05 17:12 | 55.94620 | -3.37802 | 104 ft | 4 kts | 239° |
| 2026-05-05 17:12 | 55.94599 | -3.37864 | 104 ft | 6 kts | 239° |
| 2026-05-05 17:13 | 55.94590 | -3.37910 | 105 ft | 0 kts | 265° |
| 2026-05-05 17:13 | 55.94590 | -3.37911 | 105 ft | 0 kts | 266° |
| 2026-05-05 17:14 | 55.94598 | -3.37950 | 104 ft | 6 kts | 311° |
| 2026-05-05 17:14 | 55.94614 | -3.37973 | 104 ft | 0 kts | 327° |
| 2026-05-05 17:15 | 55.94627 | -3.37986 | 103 ft | 4 kts | 330° |
| 2026-05-05 17:15 | 55.94677 | -3.38039 | 103 ft | 11 kts | 329° |
| 2026-05-05 17:15 | 55.94719 | -3.38065 | 103 ft | 4 kts | 27° |
| 2026-05-05 17:15 | 55.94731 | -3.38038 | 103 ft | 0 kts | 59° |
| 2026-05-05 17:16 | 55.94733 | -3.38030 | 103 ft | 4 kts | 59° |
| 2026-05-05 17:16 | 55.94843 | -3.37709 | 99 ft | 66 kts | 59° |
| 2026-05-05 17:16 | 55.95199 | -3.36659 | 100 ft | 130 kts | 59° |
| 2026-05-05 17:17 | 55.95727 | -3.35091 | 375 ft | 156 kts | 60° |
| 2026-05-05 17:17 | 55.96394 | -3.33578 | 1080 ft | 159 kts | 46° |
| 2026-05-05 17:17 | 55.97198 | -3.32301 | 1856 ft | 154 kts | 42° |
| 2026-05-05 17:17 | 55.97960 | -3.31168 | 2119 ft | 142 kts | 42° |
| 2026-05-05 17:18 | 55.98768 | -3.29967 | 2337 ft | 163 kts | 43° |
| 2026-05-05 17:18 | 55.99651 | -3.28605 | 2799 ft | 178 kts | 37° |
| 2026-05-05 17:18 | 56.00906 | -3.27944 | 3157 ft | 208 kts | 358° |
| 2026-05-05 17:18 | 56.02272 | -3.29099 | 3687 ft | 235 kts | 316° |
| 2026-05-05 17:19 | 56.03041 | -3.31776 | 4213 ft | 259 kts | 281° |
| 2026-05-05 17:19 | 56.03009 | -3.35063 | 4853 ft | 275 kts | 262° |
| 2026-05-05 17:19 | 56.02625 | -3.38381 | 5780 ft | 277 kts | 258° |
| 2026-05-05 17:19 | 56.02133 | -3.41635 | 6839 ft | 274 kts | 256° |
| 2026-05-05 17:20 | 56.01627 | -3.44889 | 7793 ft | 275 kts | 257° |
| 2026-05-05 17:20 | 56.01143 | -3.48157 | 8726 ft | 276 kts | 258° |
| 2026-05-05 17:20 | 56.00665 | -3.51465 | 9651 ft | 277 kts | 258° |
| 2026-05-05 17:20 | 56.00194 | -3.54765 | 10533 ft | 278 kts | 259° |
| 2026-05-05 17:21 | 55.99712 | -3.58171 | 11074 ft | 292 kts | 259° |
| 2026-05-05 17:21 | 55.99197 | -3.61810 | 11497 ft | 310 kts | 258° |
| 2026-05-05 17:21 | 55.98667 | -3.65526 | 12134 ft | 318 kts | 257° |
| 2026-05-05 17:22 | 55.97563 | -3.73212 | 13728 ft | 324 kts | 257° |
| 2026-05-05 17:22 | 55.97007 | -3.77064 | 14462 ft | 327 kts | 257° |
| 2026-05-05 17:22 | 55.96440 | -3.80997 | 15185 ft | 331 kts | 257° |
| 2026-05-05 17:22 | 55.95860 | -3.84996 | 15909 ft | 334 kts | 257° |
| 2026-05-05 17:23 | 55.95280 | -3.88973 | 16605 ft | 337 kts | 257° |
| 2026-05-05 17:23 | 55.94689 | -3.93027 | 17298 ft | 340 kts | 257° |
| 2026-05-05 17:23 | 55.94105 | -3.97085 | 17962 ft | 343 kts | 258° |
| 2026-05-05 17:23 | 55.93607 | -4.01238 | 18611 ft | 346 kts | 258° |
| 2026-05-05 17:24 | 55.92676 | -4.05187 | 19195 ft | 355 kts | 238° |
| 2026-05-05 17:24 | 55.90940 | -4.08369 | 19788 ft | 364 kts | 217° |
| 2026-05-05 17:24 | 55.88667 | -4.10375 | 20414 ft | 371 kts | 204° |
| 2026-05-05 17:24 | 55.86275 | -4.12130 | 21019 ft | 373 kts | 207° |
| 2026-05-05 17:25 | 55.83976 | -4.14228 | 21608 ft | 374 kts | 212° |
| 2026-05-05 17:25 | 55.82503 | -4.15792 | 22028 ft | 374 kts | 214° |
| 2026-05-05 17:25 | 55.79630 | -4.19116 | 22947 ft | 373 kts | 216° |
| 2026-05-05 17:25 | 55.77480 | -4.21725 | 23515 ft | 375 kts | 217° |
| 2026-05-05 17:26 | 55.75334 | -4.24381 | 24046 ft | 378 kts | 215° |
| 2026-05-05 17:26 | 55.72951 | -4.26332 | 24500 ft | 388 kts | 197° |
| 2026-05-05 17:26 | 55.70259 | -4.26855 | 24983 ft | 397 kts | 180° |
| 2026-05-05 17:26 | 55.67552 | -4.25862 | 25451 ft | 406 kts | 161° |
| 2026-05-05 17:27 | 55.65097 | -4.23388 | 25917 ft | 413 kts | 146° |
| 2026-05-05 17:27 | 55.62759 | -4.20421 | 26401 ft | 414 kts | 151° |
| 2026-05-05 17:27 | 55.60288 | -4.17778 | 26866 ft | 417 kts | 152° |
| 2026-05-05 17:27 | 55.57791 | -4.15191 | 27333 ft | 418 kts | 153° |
| 2026-05-05 17:28 | 55.55289 | -4.12700 | 27762 ft | 420 kts | 154° |
| 2026-05-05 17:28 | 55.52723 | -4.10216 | 28180 ft | 423 kts | 154° |
| 2026-05-05 17:28 | 55.50126 | -4.07732 | 28589 ft | 425 kts | 154° |
| 2026-05-05 17:28 | 55.47522 | -4.05254 | 29008 ft | 427 kts | 154° |
| 2026-05-05 17:29 | 55.44922 | -4.02784 | 29534 ft | 426 kts | 154° |
| 2026-05-05 17:29 | 55.42369 | -4.00359 | 30072 ft | 424 kts | 154° |
| 2026-05-05 17:29 | 55.39771 | -3.97891 | 30596 ft | 422 kts | 154° |
| 2026-05-05 17:29 | 55.37217 | -3.95469 | 31068 ft | 421 kts | 154° |
| 2026-05-05 17:30 | 55.34626 | -3.93013 | 31526 ft | 420 kts | 154° |
| 2026-05-05 17:30 | 55.32058 | -3.90583 | 31903 ft | 421 kts | 154° |
| 2026-05-05 17:30 | 55.29493 | -3.88163 | 32246 ft | 422 kts | 154° |
| 2026-05-05 17:30 | 55.26931 | -3.85748 | 32575 ft | 424 kts | 154° |
| 2026-05-05 17:31 | 55.24299 | -3.83367 | 32879 ft | 424 kts | 157° |
| 2026-05-05 17:31 | 55.21612 | -3.81277 | 33037 ft | 425 kts | 160° |
| 2026-05-05 17:31 | 55.18856 | -3.79489 | 33041 ft | 425 kts | 164° |
| 2026-05-05 17:32 | 55.13261 | -3.76426 | 33041 ft | 425 kts | 165° |
| 2026-05-05 17:32 | 55.07628 | -3.73347 | 33043 ft | 424 kts | 165° |
| 2026-05-05 17:33 | 55.02016 | -3.70285 | 33046 ft | 424 kts | 165° |
| 2026-05-05 17:33 | 54.96418 | -3.67239 | 33047 ft | 422 kts | 165° |
| 2026-05-05 17:34 | 54.90851 | -3.64218 | 33050 ft | 422 kts | 165° |
| 2026-05-05 17:34 | 54.85254 | -3.61189 | 33049 ft | 423 kts | 165° |
| 2026-05-05 17:35 | 54.79645 | -3.58162 | 33047 ft | 423 kts | 165° |
| 2026-05-05 17:35 | 54.74070 | -3.55162 | 33046 ft | 423 kts | 165° |
| 2026-05-05 17:36 | 54.68465 | -3.52156 | 33044 ft | 424 kts | 165° |
| 2026-05-05 17:36 | 54.62834 | -3.49143 | 33040 ft | 424 kts | 165° |
| 2026-05-05 17:37 | 54.57216 | -3.46146 | 33034 ft | 423 kts | 165° |
| 2026-05-05 17:37 | 54.51596 | -3.43157 | 33029 ft | 423 kts | 165° |
| 2026-05-05 17:38 | 54.46001 | -3.40190 | 33024 ft | 423 kts | 165° |
| 2026-05-05 17:38 | 54.40387 | -3.37221 | 33026 ft | 423 kts | 165° |
| 2026-05-05 17:39 | 54.34790 | -3.34267 | 33026 ft | 423 kts | 166° |
| 2026-05-05 17:39 | 54.29221 | -3.31336 | 33030 ft | 422 kts | 166° |
| 2026-05-05 17:40 | 54.23633 | -3.28405 | 33034 ft | 420 kts | 166° |
| 2026-05-05 17:40 | 54.18008 | -3.25950 | 33033 ft | 417 kts | 172° |
| 2026-05-05 17:41 | 54.12273 | -3.24655 | 33035 ft | 415 kts | 178° |
| 2026-05-05 17:41 | 54.06550 | -3.23756 | 33035 ft | 415 kts | 178° |
| 2026-05-05 17:42 | 54.00816 | -3.22756 | 33033 ft | 416 kts | 175° |
| 2026-05-05 17:42 | 53.95147 | -3.20881 | 33035 ft | 418 kts | 170° |
| 2026-05-05 17:43 | 53.89493 | -3.18735 | 33031 ft | 418 kts | 170° |
| 2026-05-05 17:43 | 53.83822 | -3.16591 | 33033 ft | 418 kts | 170° |
| 2026-05-05 17:44 | 53.78148 | -3.14450 | 33030 ft | 419 kts | 170° |
| 2026-05-05 17:44 | 53.72493 | -3.12319 | 33032 ft | 420 kts | 170° |
| 2026-05-05 17:45 | 53.66778 | -3.10172 | 33033 ft | 421 kts | 170° |
| 2026-05-05 17:45 | 53.61095 | -3.08043 | 33029 ft | 422 kts | 170° |
| 2026-05-05 17:46 | 53.55394 | -3.05913 | 33030 ft | 421 kts | 169° |
| 2026-05-05 17:46 | 53.49685 | -3.03788 | 33031 ft | 422 kts | 169° |
| 2026-05-05 17:47 | 53.43974 | -3.01665 | 33030 ft | 423 kts | 169° |
| 2026-05-05 17:47 | 53.38234 | -2.99538 | 33033 ft | 424 kts | 169° |
| 2026-05-05 17:48 | 53.32482 | -2.97411 | 33036 ft | 425 kts | 169° |
| 2026-05-05 17:48 | 53.26716 | -2.95284 | 32787 ft | 424 kts | 169° |
| 2026-05-05 17:48 | 53.23859 | -2.94229 | 32530 ft | 422 kts | 169° |
| 2026-05-05 17:49 | 53.21027 | -2.93188 | 32273 ft | 419 kts | 169° |
| 2026-05-05 17:49 | 53.18177 | -2.92144 | 32013 ft | 417 kts | 169° |
| 2026-05-05 17:49 | 53.15358 | -2.91111 | 31754 ft | 416 kts | 169° |
| 2026-05-05 17:49 | 53.12531 | -2.90106 | 31494 ft | 415 kts | 170° |
| 2026-05-05 17:50 | 53.09691 | -2.89345 | 31235 ft | 415 kts | 174° |
| 2026-05-05 17:50 | 53.06823 | -2.88860 | 30977 ft | 415 kts | 176° |
| 2026-05-05 17:50 | 53.03983 | -2.88752 | 30719 ft | 415 kts | 182° |
| 2026-05-05 17:50 | 53.01100 | -2.88914 | 30455 ft | 415 kts | 183° |
| 2026-05-05 17:51 | 52.98196 | -2.89116 | 30191 ft | 416 kts | 184° |
| 2026-05-05 17:51 | 52.95332 | -2.89342 | 29936 ft | 417 kts | 184° |
| 2026-05-05 17:51 | 52.92435 | -2.89584 | 29604 ft | 418 kts | 184° |
| 2026-05-05 17:51 | 52.89537 | -2.89903 | 29171 ft | 418 kts | 187° |
| 2026-05-05 17:52 | 52.86672 | -2.90487 | 28612 ft | 417 kts | 189° |
| 2026-05-05 17:52 | 52.83839 | -2.91160 | 28178 ft | 413 kts | 189° |
| 2026-05-05 17:52 | 52.81009 | -2.91825 | 27739 ft | 408 kts | 189° |
| 2026-05-05 17:52 | 52.78239 | -2.92475 | 27297 ft | 404 kts | 189° |
| 2026-05-05 17:53 | 52.75488 | -2.93119 | 26842 ft | 400 kts | 190° |
| 2026-05-05 17:53 | 52.72720 | -2.93762 | 26383 ft | 397 kts | 189° |
| 2026-05-05 17:53 | 52.69995 | -2.94211 | 25933 ft | 395 kts | 186° |
| 2026-05-05 17:53 | 52.67303 | -2.94444 | 25484 ft | 392 kts | 185° |
| 2026-05-05 17:54 | 52.64579 | -2.94670 | 25027 ft | 389 kts | 185° |
| 2026-05-05 17:54 | 52.61900 | -2.94893 | 24579 ft | 386 kts | 185° |
| 2026-05-05 17:54 | 52.59230 | -2.95116 | 24130 ft | 383 kts | 185° |
| 2026-05-05 17:54 | 52.56583 | -2.95336 | 23685 ft | 380 kts | 185° |
| 2026-05-05 17:55 | 52.53988 | -2.95553 | 23239 ft | 377 kts | 185° |
| 2026-05-05 17:55 | 52.51389 | -2.95769 | 22796 ft | 375 kts | 185° |
| 2026-05-05 17:55 | 52.48779 | -2.95985 | 22342 ft | 373 kts | 185° |
| 2026-05-05 17:55 | 52.46202 | -2.96197 | 21889 ft | 371 kts | 185° |
| 2026-05-05 17:56 | 52.43665 | -2.96406 | 21450 ft | 368 kts | 185° |
| 2026-05-05 17:56 | 52.41108 | -2.96616 | 21004 ft | 366 kts | 185° |
| 2026-05-05 17:56 | 52.38566 | -2.96825 | 20555 ft | 364 kts | 185° |
| 2026-05-05 17:56 | 52.36070 | -2.97027 | 20118 ft | 362 kts | 185° |
| 2026-05-05 17:57 | 52.33563 | -2.97231 | 19673 ft | 360 kts | 185° |
| 2026-05-05 17:57 | 52.31062 | -2.97435 | 19230 ft | 358 kts | 185° |
| 2026-05-05 17:57 | 52.28589 | -2.97636 | 18795 ft | 356 kts | 185° |
| 2026-05-05 17:57 | 52.26129 | -2.97838 | 18359 ft | 354 kts | 185° |
| 2026-05-05 17:58 | 52.23680 | -2.98037 | 17924 ft | 352 kts | 185° |
| 2026-05-05 17:58 | 52.21243 | -2.98235 | 17490 ft | 350 kts | 185° |
| 2026-05-05 17:58 | 52.18840 | -2.98429 | 17066 ft | 349 kts | 185° |
| 2026-05-05 17:58 | 52.16437 | -2.98624 | 16632 ft | 347 kts | 185° |
| 2026-05-05 17:59 | 52.14040 | -2.98819 | 16204 ft | 345 kts | 185° |
| 2026-05-05 17:59 | 52.11647 | -2.98994 | 15763 ft | 343 kts | 183° |
| 2026-05-05 17:59 | 52.09311 | -2.99063 | 15265 ft | 336 kts | 182° |
| 2026-05-05 17:59 | 52.06990 | -2.99099 | 14717 ft | 328 kts | 182° |
| 2026-05-05 18:00 | 52.04738 | -2.99134 | 14168 ft | 322 kts | 182° |
| 2026-05-05 18:00 | 52.02528 | -2.99173 | 13627 ft | 318 kts | 182° |
| 2026-05-05 18:00 | 52.00349 | -2.99215 | 13088 ft | 314 kts | 182° |
| 2026-05-05 18:00 | 51.98181 | -2.99259 | 12543 ft | 311 kts | 182° |
| 2026-05-05 18:01 | 51.96031 | -2.99303 | 12048 ft | 312 kts | 181° |
| 2026-05-05 18:01 | 51.93838 | -2.99350 | 11601 ft | 313 kts | 181° |
| 2026-05-05 18:01 | 51.91684 | -2.99396 | 11170 ft | 315 kts | 181° |
| 2026-05-05 18:01 | 51.89495 | -2.99443 | 10742 ft | 316 kts | 181° |
| 2026-05-05 18:02 | 51.87279 | -2.99490 | 10333 ft | 316 kts | 181° |
| 2026-05-05 18:02 | 51.85104 | -2.99536 | 10054 ft | 309 kts | 181° |
| 2026-05-05 18:02 | 51.83023 | -2.99579 | 9971 ft | 296 kts | 181° |
| 2026-05-05 18:02 | 51.81002 | -2.99621 | 9904 ft | 284 kts | 181° |
| 2026-05-05 18:03 | 51.79027 | -2.99663 | 9562 ft | 284 kts | 181° |
| 2026-05-05 18:03 | 51.77048 | -2.99706 | 9207 ft | 284 kts | 181° |
| 2026-05-05 18:03 | 51.75097 | -2.99748 | 8865 ft | 283 kts | 181° |
| 2026-05-05 18:03 | 51.73141 | -2.99791 | 8532 ft | 281 kts | 181° |
| 2026-05-05 18:04 | 51.71201 | -2.99833 | 8200 ft | 280 kts | 181° |
| 2026-05-05 18:04 | 51.69257 | -2.99876 | 7868 ft | 279 kts | 181° |
| 2026-05-05 18:04 | 51.67316 | -2.99918 | 7535 ft | 277 kts | 180° |
| 2026-05-05 18:04 | 51.65410 | -2.99959 | 7213 ft | 276 kts | 180° |
| 2026-05-05 18:05 | 51.63485 | -2.99999 | 6886 ft | 274 kts | 180° |
| 2026-05-05 18:05 | 51.61607 | -3.00039 | 6587 ft | 269 kts | 180° |
| 2026-05-05 18:05 | 51.59755 | -3.00079 | 6256 ft | 261 kts | 180° |
| 2026-05-05 18:05 | 51.57978 | -3.00116 | 5944 ft | 253 kts | 180° |
| 2026-05-05 18:06 | 51.56241 | -3.00153 | 5645 ft | 247 kts | 180° |
| 2026-05-05 18:06 | 51.55104 | -3.00176 | 5451 ft | 246 kts | 180° |
| 2026-05-05 18:06 | 51.52814 | -3.00224 | 5061 ft | 246 kts | 180° |
| 2026-05-05 18:06 | 51.51140 | -3.00259 | 4823 ft | 242 kts | 180° |
| 2026-05-05 18:07 | 51.49466 | -3.00294 | 4594 ft | 234 kts | 180° |
| 2026-05-05 18:07 | 51.47869 | -3.00328 | 4278 ft | 228 kts | 180° |
| 2026-05-05 18:07 | 51.46299 | -3.00361 | 3965 ft | 222 kts | 180° |
| 2026-05-05 18:07 | 51.44754 | -3.00393 | 3883 ft | 220 kts | 180° |
| 2026-05-05 18:08 | 51.43264 | -3.00425 | 3840 ft | 214 kts | 179° |
| 2026-05-05 18:08 | 51.41776 | -3.00457 | 3824 ft | 214 kts | 179° |
| 2026-05-05 18:08 | 51.40292 | -3.00488 | 3796 ft | 214 kts | 179° |
| 2026-05-05 18:08 | 51.38802 | -3.00512 | 3750 ft | 215 kts | 176° |
| 2026-05-05 18:09 | 51.37424 | -2.99889 | 3599 ft | 201 kts | 137° |
| 2026-05-05 18:09 | 51.36778 | -2.98107 | 3478 ft | 184 kts | 90° |
| 2026-05-05 18:09 | 51.36959 | -2.96132 | 3370 ft | 179 kts | 72° |
| 2026-05-05 18:09 | 51.37295 | -2.94226 | 3138 ft | 179 kts | 75° |
| 2026-05-05 18:10 | 51.37387 | -2.92240 | 2898 ft | 180 kts | 80° |
| 2026-05-05 18:10 | 51.37524 | -2.90268 | 2626 ft | 174 kts | 79° |
| 2026-05-05 18:10 | 51.37631 | -2.88403 | 2402 ft | 163 kts | 81° |
| 2026-05-05 18:10 | 51.37703 | -2.86637 | 2242 ft | 159 kts | 81° |
| 2026-05-05 18:11 | 51.37767 | -2.84859 | 1995 ft | 159 kts | 81° |
| 2026-05-05 18:11 | 51.37829 | -2.83147 | 1775 ft | 148 kts | 81° |
| 2026-05-05 18:11 | 51.37886 | -2.81592 | 1594 ft | 136 kts | 80° |
| 2026-05-05 18:11 | 51.37947 | -2.80093 | 1428 ft | 135 kts | 81° |
| 2026-05-05 18:12 | 51.38009 | -2.78589 | 1277 ft | 135 kts | 82° |
| 2026-05-05 18:12 | 51.38057 | -2.77097 | 1091 ft | 134 kts | 81° |
| 2026-05-05 18:12 | 51.38121 | -2.75593 | 916 ft | 134 kts | 82° |
| 2026-05-05 18:12 | 51.38177 | -2.74111 | 729 ft | 134 kts | 82° |
| 2026-05-05 18:13 | 51.38237 | -2.72650 | 620 ft | 127 kts | 83° |
| 2026-05-05 18:13 | 51.38276 | -2.71645 | 604 ft | 47 kts | 86° |
| 2026-05-05 18:13 | 51.38296 | -2.71456 | 604 ft | 10 kts | 31° |
| 2026-05-05 18:13 | 51.38364 | -2.71499 | 603 ft | 12 kts | 327° |
| 2026-05-05 18:14 | 51.38424 | -2.71532 | 602 ft | 6 kts | 20° |
| 2026-05-05 18:14 | 51.38447 | -2.71461 | 601 ft | 8 kts | 86° |
| 2026-05-05 18:14 | 51.38447 | -2.71359 | 601 ft | 9 kts | 89° |
| 2026-05-05 18:14 | 51.38451 | -2.71239 | 601 ft | 12 kts | 85° |
| 2026-05-05 18:15 | 51.38457 | -2.71091 | 601 ft | 14 kts | 86° |
| 2026-05-05 18:15 | 51.38464 | -2.70932 | 601 ft | 14 kts | 86° |
| 2026-05-05 18:15 | 51.38470 | -2.70767 | 602 ft | 14 kts | 86° |
| 2026-05-05 18:15 | 51.38478 | -2.70652 | 604 ft | 7 kts | 60° |
| 2026-05-05 18:16 | 51.38537 | -2.70634 | 602 ft | 11 kts | 358° |
| 2026-05-05 18:16 | 51.38571 | -2.70660 | 601 ft | 4 kts | 283° |
| 2026-05-05 18:16 | 51.38572 | -2.70692 | 600 ft | 1 kts | 267° |
| 2026-05-05 18:16 | 51.38571 | -2.70704 | 600 ft | 0 kts | 267° |